Time;durP1;ratioP1;P1;durP2;ratioP2;P2;SDS_P1;SDS_P2;PMS_P1;PMS_P2;Temp;Humidity;BMP_temperature;BMP_pressure;BME280_temperature;BME280_humidity;BME280_pressure;Samples;Min_cycle;Max_cycle;Signal;HPM_P1;HPM_P2
2023/08/19 00:03:51;;;;;;;7.03;6.32;;;22.00;99.90;;;;;;9940990;29;20213;-79
2023/08/19 00:09:12;;;;;;;8.80;6.97;;;22.00;99.90;;;;;;9942697;29;20245;-79
2023/08/19 00:14:34;;;;;;;8.98;7.60;;;22.00;99.90;;;;;;9930174;29;20241;-79
2023/08/19 00:19:56;;;;;;;9.80;7.40;;;21.90;99.90;;;;;;9942527;29;20227;-79
2023/08/19 00:25:18;;;;;;;9.25;7.85;;;21.80;1.00;;;;;;9928514;29;20208;-79
2023/08/19 00:30:39;;;;;;;9.25;7.47;;;21.80;1.00;;;;;;9942531;29;20491;-81
2023/08/19 00:36:00;;;;;;;10.80;8.75;;;21.80;1.00;;;;;;9890465;30;20260;-80
2023/08/19 00:41:23;;;;;;;11.60;7.47;;;21.80;1.00;;;;;;9892379;30;20382;-82
2023/08/19 00:46:44;;;;;;;8.45;7.57;;;21.80;1.00;;;;;;9905207;29;20213;-82
2023/08/19 00:52:06;;;;;;;10.27;7.88;;;21.70;1.00;;;;;;9926667;29;20212;-81
2023/08/19 00:57:27;;;;;;;9.05;7.05;;;21.70;1.00;;;;;;9927941;29;20237;-82
2023/08/19 01:02:48;;;;;;;8.20;7.40;;;21.70;1.00;;;;;;9927951;29;20202;-80
2023/08/19 01:08:13;;;;;;;7.93;6.90;;;21.70;1.00;;;;;;9927005;29;20241;-79
2023/08/19 01:13:59;;;;;;;8.77;7.47;;;21.60;1.00;;;;;;9932679;29;20210;-79
2023/08/19 01:19:30;;;;;;;9.63;7.72;;;21.60;1.00;;;;;;9945673;29;20285;-79
2023/08/19 01:24:52;;;;;;;7.78;6.97;;;21.60;1.00;;;;;;9948326;29;20209;-79
2023/08/19 01:30:14;;;;;;;7.65;6.85;;;21.60;1.00;;;;;;9946505;29;20228;-81
2023/08/19 01:35:42;;;;;;;7.22;6.53;;;21.60;1.00;;;;;;9933055;29;20304;-80
2023/08/19 01:41:05;;;;;;;7.97;7.18;;;21.70;1.00;;;;;;9933333;30;20209;-82
2023/08/19 01:46:26;;;;;;;7.53;6.82;;;21.70;1.00;;;;;;9922784;29;20229;-79
2023/08/19 01:51:48;;;;;;;10.68;7.10;;;21.70;1.00;;;;;;9919996;30;20457;-82
2023/08/19 01:57:09;;;;;;;8.05;7.25;;;21.70;1.00;;;;;;9932518;29;20523;-80
2023/08/19 02:02:31;;;;;;;8.73;7.70;;;21.70;1.00;;;;;;9932288;29;20444;-83
2023/08/19 02:07:52;;;;;;;8.18;7.38;;;21.70;1.00;;;;;;9919738;30;20486;-79
2023/08/19 02:13:13;;;;;;;9.60;8.60;;;21.70;1.00;;;;;;9944968;29;20207;-79
2023/08/19 02:18:36;;;;;;;8.18;7.38;;;21.60;1.00;;;;;;9931583;30;20255;-82
2023/08/19 02:23:57;;;;;;;9.32;7.57;;;21.50;1.00;;;;;;9936251;29;20451;-81
2023/08/19 02:29:19;;;;;;;7.85;7.15;;;21.50;1.00;;;;;;9946003;29;20209;-81
2023/08/19 02:34:40;;;;;;;7.72;6.93;;;21.50;1.00;;;;;;9943854;29;20237;-81
2023/08/19 02:40:03;;;;;;;7.88;7.15;;;21.50;1.00;;;;;;9930785;29;20494;-79
2023/08/19 02:45:27;;;;;;;10.45;7.63;;;21.50;1.00;;;;;;9943049;29;20213;-81
2023/08/19 02:50:53;;;;;;;9.05;7.97;;;21.50;1.00;;;;;;9943583;29;20225;-80
2023/08/19 02:56:14;;;;;;;9.88;7.38;;;21.50;1.00;;;;;;9945379;29;20237;-81
2023/08/19 03:01:36;;;;;;;7.78;7.07;;;21.50;1.00;;;;;;9931341;30;20205;-79
2023/08/19 03:06:58;;;;;;;7.72;6.93;;;21.50;1.00;;;;;;9930197;29;20208;-79
2023/08/19 03:12:19;;;;;;;8.50;7.05;;;21.50;1.00;;;;;;9942473;29;20415;-79
2023/08/19 03:17:40;;;;;;;9.95;8.95;;;21.40;1.00;;;;;;9930463;29;20247;-79
2023/08/19 03:23:02;;;;;;;10.82;8.15;;;21.30;1.00;;;;;;9931518;29;20492;-79
2023/08/19 03:28:24;;;;;;;10.82;7.32;;;21.20;1.00;;;;;;9928880;29;20496;-79
2023/08/19 03:33:45;;;;;;;10.07;7.75;;;21.20;1.00;;;;;;9941461;29;20377;-79
2023/08/19 03:39:07;;;;;;;8.65;7.75;;;21.20;1.00;;;;;;9943692;29;20201;-79
2023/08/19 03:44:28;;;;;;;11.45;9.30;;;21.10;1.00;;;;;;9941081;29;20209;-79
2023/08/19 03:49:50;;;;;;;10.68;7.97;;;21.10;1.00;;;;;;9943263;29;20217;-80
2023/08/19 03:55:12;;;;;;;8.77;7.72;;;21.10;1.00;;;;;;9942934;29;20313;-79
2023/08/19 04:00:33;;;;;;;8.60;7.80;;;21.10;1.00;;;;;;9928763;29;20202;-79
2023/08/19 04:05:54;;;;;;;8.88;7.97;;;21.10;1.00;;;;;;9915042;30;20209;-79
2023/08/19 04:11:16;;;;;;;10.05;8.48;;;21.10;1.00;;;;;;9865560;30;20303;-80
2023/08/19 04:16:37;;;;;;;9.27;8.07;;;21.10;1.00;;;;;;9905463;30;20564;-79
2023/08/19 04:21:59;;;;;;;8.75;7.75;;;21.10;1.00;;;;;;9902652;30;20205;-80
2023/08/19 04:27:22;;;;;;;11.70;8.75;;;21.20;1.00;;;;;;9942303;29;20495;-79
2023/08/19 04:32:43;;;;;;;10.85;9.30;;;21.20;1.00;;;;;;9942159;29;20201;-79
2023/08/19 04:38:05;;;;;;;13.80;10.80;;;21.20;1.00;;;;;;9942418;29;20236;-88
2023/08/19 04:43:28;;;;;;;10.00;8.98;;;21.20;7.80;;;;;;9942493;29;20205;-81
2023/08/19 04:48:51;;;;;;;10.93;9.57;;;21.20;63.10;;;;;;9948638;29;20209;-79
2023/08/19 04:54:12;;;;;;;13.35;9.57;;;21.30;49.90;;;;;;9946894;29;20197;-82
2023/08/19 04:59:33;;;;;;;11.48;9.48;;;21.30;12.20;;;;;;9947046;29;20310;-79
2023/08/19 05:04:54;;;;;;;9.00;8.20;;;21.40;38.70;;;;;;9949299;29;20603;-79
2023/08/19 05:10:16;;;;;;;10.50;9.10;;;21.40;15.30;;;;;;9933537;29;20301;-79
2023/08/19 05:15:38;;;;;;;10.13;9.13;;;21.50;1.00;;;;;;9946777;29;20233;-79
2023/08/19 05:20:59;;;;;;;9.85;8.80;;;21.60;14.40;;;;;;9935803;29;20203;-79
2023/08/19 05:26:20;;;;;;;9.35;8.35;;;21.60;1.00;;;;;;9948237;29;20237;-83
2023/08/19 05:31:42;;;;;;;9.05;8.15;;;21.70;1.00;;;;;;9920799;30;20205;-81
2023/08/19 05:37:06;;;;;;;9.20;8.30;;;21.80;1.00;;;;;;9933216;29;20294;-85
2023/08/19 05:42:30;;;;;;;9.10;7.97;;;21.70;1.00;;;;;;9933153;29;20553;-82
2023/08/19 05:47:52;;;;;;;9.73;8.77;;;21.80;1.00;;;;;;9948143;29;20507;-87
2023/08/19 05:53:13;;;;;;;9.63;8.68;;;21.90;1.00;;;;;;9933833;29;20276;-80
2023/08/19 05:58:35;;;;;;;8.68;7.57;;;22.00;1.00;;;;;;9944898;29;20280;-79
2023/08/19 06:03:56;;;;;;;8.32;7.53;;;22.00;1.00;;;;;;9945074;29;20197;-79
2023/08/19 06:09:17;;;;;;;8.13;7.40;;;22.00;1.00;;;;;;9945049;29;20245;-82
2023/08/19 06:14:39;;;;;;;8.27;7.47;;;22.00;1.00;;;;;;9946884;29;20229;-80
2023/08/19 06:20:00;;;;;;;8.40;7.70;;;22.10;1.00;;;;;;9932480;30;20213;-79
2023/08/19 06:25:21;;;;;;;9.45;8.55;;;22.20;1.00;;;;;;9894895;30;20277;-80
2023/08/19 06:30:43;;;;;;;9.85;8.85;;;22.20;1.00;;;;;;9906911;29;20214;-80
2023/08/19 06:36:06;;;;;;;17.05;11.68;;;22.30;1.00;;;;;;9907220;30;20268;-82
2023/08/19 06:41:28;;;;;;;19.98;13.25;;;22.30;1.00;;;;;;9930814;29;20239;-80
2023/08/19 06:46:51;;;;;;;17.15;12.35;;;22.40;1.00;;;;;;9931096;30;20201;-79
2023/08/19 06:52:12;;;;;;;13.38;12.02;;;22.40;1.00;;;;;;9966232;29;20236;-81
2023/08/19 06:57:56;;;;;;;12.23;11.02;;;22.30;1.00;;;;;;9947452;29;20455;-81
2023/08/19 07:03:19;;;;;;;10.77;9.63;;;22.40;1.00;;;;;;9930576;30;20200;-81
2023/08/19 07:08:43;;;;;;;12.13;10.93;;;22.50;1.00;;;;;;9930151;29;20240;-81
2023/08/19 07:14:05;;;;;;;12.75;11.45;;;22.50;1.00;;;;;;9930010;30;20273;-81
2023/08/19 07:19:31;;;;;;;18.25;13.23;;;22.50;1.00;;;;;;9944471;29;20237;-83
2023/08/19 07:24:53;;;;;;;13.93;12.60;;;22.60;1.00;;;;;;9944548;29;20216;-79
2023/08/19 07:30:15;;;;;;;12.43;11.15;;;22.60;1.00;;;;;;9929722;30;20193;-80
2023/08/19 07:35:38;;;;;;;10.50;9.40;;;22.80;1.00;;;;;;9943842;29;20308;-81
2023/08/19 07:41:00;;;;;;;13.23;11.90;;;23.00;1.00;;;;;;9941842;29;20522;-84
2023/08/19 07:46:21;;;;;;;13.32;11.93;;;23.10;99.90;;;;;;9928639;29;20266;-80
2023/08/19 07:51:42;;;;;;;10.57;9.50;;;23.10;99.90;;;;;;9961081;29;20233;-82
2023/08/19 07:57:03;;;;;;;9.18;8.20;;;23.30;99.90;;;;;;9937309;29;20344;-85
2023/08/19 08:02:25;;;;;;;9.05;8.15;;;23.60;1.00;;;;;;9928599;29;20221;-81
2023/08/19 08:07:47;;;;;;;9.38;8.48;;;23.80;99.90;;;;;;9940842;29;20258;-85
2023/08/19 08:13:08;;;;;;;14.18;11.38;;;24.00;1.00;;;;;;9940970;29;20201;-81
2023/08/19 08:18:30;;;;;;;10.77;9.77;;;24.30;99.90;;;;;;9940304;29;20530;-80
2023/08/19 08:23:54;;;;;;;9.40;8.40;;;;;;;;;;9928981;29;20197;-84
2023/08/19 08:29:16;;;;;;;10.38;9.07;;;;;;;;;;9927843;30;20215;-82
2023/08/19 08:34:38;;;;;;;9.55;8.65;;;28.00;1.00;;;;;;9927450;29;20526;-82
2023/08/19 08:39:59;;;;;;;17.20;9.77;;;28.60;99.90;;;;;;9927923;29;20209;-81
2023/08/19 08:45:22;;;;;;;8.48;7.65;;;29.10;89.10;;;;;;9942369;29;20216;-81
2023/08/19 08:50:44;;;;;;;11.77;8.85;;;29.10;62.00;;;;;;9952384;29;20240;-81
2023/08/19 08:56:06;;;;;;;12.50;8.60;;;30.10;1.00;;;;;;9955310;29;20229;-80
2023/08/19 09:01:28;;;;;;;11.48;9.55;;;30.90;1.00;;;;;;9939286;29;20206;-82
2023/08/19 09:06:57;;;;;;;20.90;9.40;;;31.40;1.00;;;;;;9927179;29;20197;-83
2023/08/19 09:12:20;;;;;;;10.20;9.07;;;31.80;1.00;;;;;;9926285;29;20253;-80
2023/08/19 09:17:43;;;;;;;9.90;8.90;;;31.80;1.00;;;;;;9938853;29;20648;-80
2023/08/19 09:23:05;;;;;;;9.80;8.88;;;32.20;1.00;;;;;;9941105;29;20201;-81
2023/08/19 09:28:31;;;;;;;11.65;9.38;;;32.70;1.00;;;;;;9939127;29;20214;-81
2023/08/19 09:33:54;;;;;;;9.90;8.93;;;32.90;99.90;;;;;;9931352;29;20201;-81
2023/08/19 09:39:15;;;;;;;9.25;8.45;;;33.10;1.00;;;;;;9945828;29;20240;-81
2023/08/19 09:44:40;;;;;;;10.00;8.73;;;;;;;;;;9945789;29;20276;-82
2023/08/19 09:50:03;;;;;;;10.63;8.13;;;33.40;1.00;;;;;;9951906;29;20213;-84
2023/08/19 09:55:34;;;;;;;9.20;8.18;;;;;;;;;;9967682;29;20232;-83
2023/08/19 10:00:56;;;;;;;9.38;8.35;;;34.30;1.00;;;;;;9945040;29;20390;-80
2023/08/19 10:06:25;;;;;;;10.93;8.82;;;34.50;1.00;;;;;;9944797;29;20209;-81
2023/08/19 10:11:52;;;;;;;9.48;8.45;;;34.50;1.00;;;;;;9944476;29;20241;-82
2023/08/19 10:17:14;;;;;;;9.55;8.18;;;34.50;1.00;;;;;;9946989;29;20241;-84
2023/08/19 10:22:38;;;;;;;14.32;8.82;;;34.60;1.00;;;;;;9931673;30;20280;-85
2023/08/19 10:28:27;;;;;;;12.90;8.88;;;;;;;;;;9932531;29;20552;-84
2023/08/19 10:33:49;;;;;;;10.27;8.73;;;35.10;1.00;;;;;;9931588;30;20212;-82
2023/08/19 10:39:17;;;;;;;10.75;9.25;;;35.40;1.00;;;;;;9943546;29;20232;-84
2023/08/19 10:44:38;;;;;;;12.65;8.85;;;35.00;1.00;;;;;;9930485;29;20212;-84
2023/08/19 10:50:04;;;;;;;12.02;9.05;;;34.90;1.00;;;;;;9962330;29;20212;-81
2023/08/19 10:55:26;;;;;;;10.30;9.25;;;34.90;1.00;;;;;;9965698;29;20228;-82
2023/08/19 11:00:48;;;;;;;10.82;8.93;;;35.00;1.00;;;;;;9930418;30;20212;-84
2023/08/19 11:06:09;;;;;;;9.73;8.80;;;35.30;1.00;;;;;;9930425;29;20522;-84
2023/08/19 11:11:34;;;;;;;8.20;7.47;;;35.70;1.00;;;;;;9942449;29;20339;-81
2023/08/19 11:16:56;;;;;;;10.05;9.00;;;35.60;1.00;;;;;;9944929;29;20565;-81
2023/08/19 11:22:17;;;;;;;9.23;8.30;;;35.40;1.00;;;;;;9931973;30;20332;-82
2023/08/19 11:27:39;;;;;;;9.25;8.07;;;35.40;1.00;;;;;;9930362;30;20231;-80
2023/08/19 11:33:01;;;;;;;9.32;8.52;;;35.30;1.00;;;;;;9931063;29;20219;-80
2023/08/19 11:38:23;;;;;;;10.45;6.63;;;35.20;1.00;;;;;;9942318;29;20236;-80
2023/08/19 11:43:44;;;;;;;7.85;7.15;;;35.30;1.00;;;;;;9941435;29;20495;-80
2023/08/19 11:49:11;;;;;;;8.68;7.78;;;35.10;1.00;;;;;;9941956;29;20242;-80
2023/08/19 11:54:33;;;;;;;7.65;6.93;;;35.10;1.00;;;;;;9969728;29;20227;-80
2023/08/19 11:59:57;;;;;;;9.00;7.45;;;35.10;1.00;;;;;;9929284;29;20221;-80
2023/08/19 12:05:26;;;;;;;8.02;7.40;;;35.20;1.00;;;;;;9941166;29;20212;-85
2023/08/19 12:10:47;;;;;;;8.98;8.07;;;35.00;1.00;;;;;;9942233;29;20249;-81
2023/08/19 12:16:09;;;;;;;8.70;6.75;;;35.10;1.00;;;;;;9927536;30;20317;-81
2023/08/19 12:21:30;;;;;;;8.00;5.50;;;35.10;1.00;;;;;;9927462;29;20194;-81
2023/08/19 12:26:51;;;;;;;7.50;6.13;;;34.80;1.00;;;;;;9927416;29;20212;-83
2023/08/19 12:32:13;;;;;;;6.85;6.13;;;34.90;1.00;;;;;;9915124;30;20205;-80
2023/08/19 12:37:34;;;;;;;6.60;6.00;;;34.60;1.00;;;;;;9940396;29;20229;-84
2023/08/19 12:42:55;;;;;;;6.57;5.97;;;34.40;1.00;;;;;;9942032;29;20248;-80
2023/08/19 12:48:16;;;;;;;7.45;5.35;;;34.30;1.00;;;;;;9919962;29;20221;-81
2023/08/19 12:53:38;;;;;;;6.43;5.43;;;34.30;1.00;;;;;;9947405;29;20208;-80
2023/08/19 12:58:59;;;;;;;8.48;6.53;;;34.10;1.00;;;;;;9926790;29;20237;-80
2023/08/19 13:04:20;;;;;;;7.93;6.13;;;33.80;1.00;;;;;;9939614;29;20201;-80
2023/08/19 13:09:42;;;;;;;6.72;6.00;;;33.60;1.00;;;;;;9945896;29;20267;-81
2023/08/19 13:15:04;;;;;;;5.32;4.90;;;33.70;1.00;;;;;;9934166;29;20205;-83
2023/08/19 13:20:26;;;;;;;10.38;6.35;;;33.70;1.00;;;;;;9948946;29;20250;-81
2023/08/19 13:25:47;;;;;;;8.90;5.38;;;33.60;1.00;;;;;;9933625;29;20217;-80
2023/08/19 13:31:08;;;;;;;7.57;5.45;;;33.50;1.00;;;;;;9933628;30;20503;-81
2023/08/19 13:36:30;;;;;;;10.43;5.90;;;33.30;99.90;;;;;;9948406;29;20265;-80
2023/08/19 13:41:51;;;;;;;6.43;5.75;;;33.10;1.00;;;;;;9934263;29;20458;-82
2023/08/19 13:47:13;;;;;;;6.68;5.30;;;32.80;1.00;;;;;;9934259;30;20211;-82
2023/08/19 13:52:42;;;;;;;8.40;5.53;;;32.60;1.00;;;;;;9971414;29;20586;-85
2023/08/19 13:58:04;;;;;;;6.88;6.05;;;32.70;1.00;;;;;;9934520;29;20239;-81
2023/08/19 14:03:26;;;;;;;6.05;5.55;;;32.80;1.00;;;;;;9933606;29;20208;-82
2023/08/19 14:08:48;;;;;;;6.20;5.65;;;32.70;1.00;;;;;;9934391;29;20249;-84
2023/08/19 14:14:09;;;;;;;6.15;5.57;;;32.80;1.00;;;;;;9944864;29;20205;-82
2023/08/19 14:19:30;;;;;;;6.80;5.40;;;32.90;1.00;;;;;;9944475;29;20561;-81
2023/08/19 14:24:52;;;;;;;8.30;5.80;;;32.90;1.00;;;;;;9921698;29;20266;-81
2023/08/19 14:30:13;;;;;;;10.68;6.10;;;32.90;1.00;;;;;;9942821;29;20197;-81
2023/08/19 14:35:35;;;;;;;6.75;5.35;;;32.70;99.90;;;;;;9943586;29;20225;-83
2023/08/19 14:40:56;;;;;;;8.40;6.13;;;32.50;99.90;;;;;;9945053;29;20205;-83
2023/08/19 14:46:17;;;;;;;8.18;6.03;;;32.50;99.90;;;;;;9931094;29;20277;-80
2023/08/19 14:51:38;;;;;;;22.00;8.32;;;32.50;99.90;;;;;;9975909;29;20406;-79
2023/08/19 14:56:59;;;;;;;5.72;5.00;;;32.40;99.90;;;;;;9951384;29;20225;-79
2023/08/19 15:02:26;;;;;;;6.60;5.90;;;32.10;99.90;;;;;;9930135;29;20498;-80
2023/08/19 15:07:47;;;;;;;7.10;5.75;;;31.70;99.90;;;;;;9913769;29;20475;-80
2023/08/19 15:13:08;;;;;;;6.47;5.88;;;31.60;99.90;;;;;;9944843;29;20280;-81
2023/08/19 15:18:30;;;;;;;7.00;6.35;;;31.50;1.00;;;;;;9941736;29;20257;-80
2023/08/19 15:23:52;;;;;;;7.82;6.45;;;31.50;1.00;;;;;;9943721;29;20266;-81
2023/08/19 15:29:13;;;;;;;7.45;6.45;;;31.30;1.00;;;;;;9939887;29;20213;-80
2023/08/19 15:34:34;;;;;;;9.05;6.95;;;31.20;1.00;;;;;;9926722;29;20207;-79
2023/08/19 15:39:56;;;;;;;6.95;6.13;;;31.00;1.00;;;;;;9926587;29;20256;-81
2023/08/19 15:45:17;;;;;;;8.63;5.65;;;30.70;1.00;;;;;;9942676;29;20201;-80
2023/08/19 15:50:38;;;;;;;6.40;5.80;;;30.60;1.00;;;;;;9940970;29;20545;-80
2023/08/19 15:56:00;;;;;;;7.18;6.47;;;;;;;;;;9928161;29;20253;-83
2023/08/19 16:01:21;;;;;;;7.18;6.22;;;30.30;1.00;;;;;;9929065;29;20261;-80
2023/08/19 16:06:43;;;;;;;8.10;7.20;;;30.30;1.00;;;;;;9940588;29;20204;-80
2023/08/19 16:12:05;;;;;;;7.75;7.00;;;;;;;;;;9928739;29;20256;-80
2023/08/19 16:17:27;;;;;;;11.90;7.65;;;30.30;1.00;;;;;;9942432;29;20282;-80
2023/08/19 16:22:48;;;;;;;8.23;7.20;;;30.20;1.00;;;;;;9927760;30;20205;-80
2023/08/19 16:28:10;;;;;;;7.15;6.55;;;30.10;1.00;;;;;;9940314;29;20205;-81
2023/08/19 16:33:32;;;;;;;7.18;6.47;;;29.90;1.00;;;;;;9940315;29;20268;-81
2023/08/19 16:38:55;;;;;;;7.38;6.68;;;29.90;1.00;;;;;;9928517;29;20229;-80
2023/08/19 16:44:16;;;;;;;7.28;6.55;;;29.80;1.00;;;;;;9934635;29;20322;-80
2023/08/19 16:49:37;;;;;;;8.07;6.55;;;;;;;;;;9949735;29;20299;-81
2023/08/19 16:55:00;;;;;;;8.63;7.45;;;;;;;;;;9921922;30;20383;-80
2023/08/19 17:00:22;;;;;;;9.57;7.15;;;29.40;1.00;;;;;;9946807;29;20317;-80
2023/08/19 17:05:44;;;;;;;8.77;7.85;;;29.20;1.00;;;;;;9947266;29;20472;-81
2023/08/19 17:11:06;;;;;;;8.52;7.68;;;29.00;1.00;;;;;;9935767;29;20312;-88
2023/08/19 17:16:27;;;;;;;11.55;7.60;;;28.90;1.00;;;;;;9934401;29;20239;-87
2023/08/19 17:21:48;;;;;;;8.93;7.72;;;28.90;1.00;;;;;;9949376;29;20323;-80
2023/08/19 17:27:10;;;;;;;10.48;8.73;;;28.60;1.00;;;;;;9946421;29;20201;-80
2023/08/19 17:32:32;;;;;;;12.70;10.00;;;28.60;1.00;;;;;;9933115;29;20205;-80
2023/08/19 17:37:53;;;;;;;10.95;8.93;;;28.40;1.00;;;;;;9933106;29;20244;-83
2023/08/19 17:43:15;;;;;;;10.52;8.32;;;;;;;;;;9945576;29;20205;-80
2023/08/19 17:48:37;;;;;;;13.73;10.38;;;28.20;99.90;;;;;;9945654;29;20255;-83
2023/08/19 17:53:58;;;;;;;26.85;18.20;;;28.20;99.90;;;;;;9945079;29;20208;-83
2023/08/19 17:59:19;;;;;;;17.88;12.82;;;28.10;1.00;;;;;;9947441;29;20240;-87
2023/08/19 18:04:41;;;;;;;12.43;9.90;;;;;;;;;;9932940;29;20211;-86
2023/08/19 18:10:03;;;;;;;11.40;9.65;;;27.70;99.90;;;;;;9933800;29;20440;-81
2023/08/19 18:15:26;;;;;;;11.88;10.65;;;27.50;99.90;;;;;;9933033;29;20257;-85
2023/08/19 18:20:47;;;;;;;14.93;13.35;;;27.30;1.00;;;;;;9933442;29;20235;-85
2023/08/19 18:26:08;;;;;;;17.42;14.48;;;27.20;99.90;;;;;;9944896;29;20198;-86
2023/08/19 18:31:30;;;;;;;14.40;13.00;;;27.00;1.00;;;;;;9944446;29;20285;-86
2023/08/19 18:36:52;;;;;;;17.60;13.80;;;26.90;1.00;;;;;;9931824;29;20231;-82
2023/08/19 18:42:13;;;;;;;14.10;12.60;;;26.80;1.00;;;;;;9944242;29;20201;-86
2023/08/19 18:48:04;;;;;;;14.98;13.13;;;26.80;99.90;;;;;;9946242;29;20241;-87
2023/08/19 18:53:26;;;;;;;14.40;13.00;;;26.60;99.90;;;;;;9943681;29;20209;-86
2023/08/19 18:58:47;;;;;;;14.45;12.30;;;26.50;1.00;;;;;;9930572;29;20605;-86
2023/08/19 19:04:08;;;;;;;13.90;12.43;;;26.40;1.00;;;;;;9942785;29;20400;-88
2023/08/19 19:09:31;;;;;;;14.50;12.70;;;26.50;40.00;;;;;;9933115;29;20290;-87
2023/08/19 19:14:53;;;;;;;13.70;11.65;;;;;;;;;;9942879;29;20233;-87
2023/08/19 19:20:15;;;;;;;17.30;13.30;;;26.20;99.90;;;;;;9942712;29;20263;-86
2023/08/19 19:25:37;;;;;;;16.83;15.13;;;26.10;99.90;;;;;;9942642;29;20206;-86
2023/08/19 19:30:58;;;;;;;21.52;18.25;;;26.00;99.90;;;;;;9930181;29;20276;-89
2023/08/19 19:36:20;;;;;;;24.45;18.17;;;25.90;1.00;;;;;;9942503;29;20551;-91
2023/08/19 19:41:41;;;;;;;15.85;14.18;;;25.80;1.00;;;;;;9930329;29;20208;-90
2023/08/19 19:47:02;;;;;;;16.88;14.63;;;25.60;1.00;;;;;;9941972;29;20205;-85
2023/08/19 19:52:24;;;;;;;17.35;14.32;;;25.60;1.00;;;;;;9941485;29;20216;-82
2023/08/19 19:57:48;;;;;;;25.52;20.20;;;25.60;1.00;;;;;;9943352;29;20243;-84
2023/08/19 20:03:10;;;;;;;22.88;19.40;;;25.50;1.00;;;;;;9940948;29;20212;-80
2023/08/19 20:08:31;;;;;;;18.30;16.05;;;25.40;1.00;;;;;;9927537;29;20249;-80
2023/08/19 20:13:53;;;;;;;19.25;15.80;;;25.30;99.90;;;;;;9940421;29;20204;-80
2023/08/19 20:19:15;;;;;;;15.80;14.20;;;25.20;1.00;;;;;;9927506;29;20247;-82
2023/08/19 20:24:37;;;;;;;15.73;13.70;;;25.20;1.00;;;;;;9942179;29;20201;-81
2023/08/19 20:29:58;;;;;;;18.35;13.20;;;25.10;1.00;;;;;;9927235;29;20276;-81
2023/08/19 20:35:19;;;;;;;13.05;11.52;;;25.10;1.00;;;;;;9940151;29;20196;-81
2023/08/19 20:40:42;;;;;;;15.43;12.52;;;25.00;1.00;;;;;;9940125;29;20534;-80
2023/08/19 20:46:04;;;;;;;14.13;11.55;;;24.90;1.00;;;;;;9935885;29;20338;-80
2023/08/19 20:51:25;;;;;;;13.30;10.68;;;24.90;1.00;;;;;;9949465;29;20605;-81
2023/08/19 20:56:47;;;;;;;12.80;11.00;;;24.80;1.00;;;;;;9927959;29;20533;-81
2023/08/19 21:02:08;;;;;;;16.15;11.15;;;24.70;1.00;;;;;;9939821;29;20205;-81
2023/08/19 21:07:30;;;;;;;12.98;11.18;;;24.60;1.00;;;;;;9939482;29;20258;-81
2023/08/19 21:12:52;;;;;;;12.43;10.80;;;24.60;1.00;;;;;;9939520;29;20214;-81
2023/08/19 21:18:13;;;;;;;15.52;10.90;;;24.50;1.00;;;;;;9927687;29;20300;-81
2023/08/19 21:23:34;;;;;;;11.75;10.50;;;24.40;1.00;;;;;;9926804;29;20207;-81
2023/08/19 21:28:56;;;;;;;13.80;11.05;;;24.40;1.00;;;;;;9930668;29;20197;-84
2023/08/19 21:34:18;;;;;;;11.85;10.10;;;24.30;1.00;;;;;;9946225;29;20265;-83
2023/08/19 21:39:39;;;;;;;10.27;9.27;;;24.20;1.00;;;;;;9946476;29;20221;-85
2023/08/19 21:45:00;;;;;;;10.65;9.27;;;24.20;1.00;;;;;;9934452;29;20221;-84
2023/08/19 21:50:24;;;;;;;11.68;9.13;;;24.10;1.00;;;;;;9932967;30;20212;-82
2023/08/19 21:55:45;;;;;;;10.82;9.40;;;24.10;1.00;;;;;;9920281;30;20288;-85
2023/08/19 22:01:07;;;;;;;9.85;8.90;;;24.00;1.00;;;;;;9945818;29;20240;-84
2023/08/19 22:06:29;;;;;;;13.23;9.30;;;;;;;;;;9919970;30;20258;-84
2023/08/19 22:11:50;;;;;;;13.40;10.15;;;23.90;99.90;;;;;;9932200;29;20245;-81
2023/08/19 22:17:11;;;;;;;13.93;10.32;;;23.90;42.10;;;;;;9931794;30;20286;-81
2023/08/19 22:22:33;;;;;;;13.70;10.15;;;23.80;1.00;;;;;;9932498;29;20205;-80
2023/08/19 22:27:54;;;;;;;13.25;10.07;;;23.80;1.00;;;;;;9945093;29;20223;-87
2023/08/19 22:33:15;;;;;;;10.60;9.32;;;23.70;99.90;;;;;;9946409;29;20213;-81
2023/08/19 22:38:36;;;;;;;13.18;9.40;;;23.60;99.90;;;;;;9932290;29;20233;-82
2023/08/19 22:43:58;;;;;;;9.65;8.65;;;23.60;99.90;;;;;;9931292;29;20216;-84
2023/08/19 22:49:20;;;;;;;10.18;8.90;;;23.50;1.00;;;;;;9930793;30;20224;-84
2023/08/19 22:54:41;;;;;;;8.85;7.97;;;23.50;1.00;;;;;;9931922;29;20200;-83
2023/08/19 23:00:02;;;;;;;9.73;8.25;;;23.40;1.00;;;;;;9943855;29;20236;-83
2023/08/19 23:05:23;;;;;;;8.85;8.00;;;23.50;1.00;;;;;;9930659;29;20209;-83
2023/08/19 23:10:45;;;;;;;9.50;8.25;;;23.40;99.90;;;;;;9930885;29;20336;-83
2023/08/19 23:16:06;;;;;;;10.05;8.95;;;23.40;1.00;;;;;;9945437;29;20209;-86
2023/08/19 23:21:27;;;;;;;9.75;8.75;;;23.30;1.00;;;;;;9918069;29;20237;-90
2023/08/19 23:26:55;;;;;;;14.00;9.18;;;23.20;1.00;;;;;;9931165;29;20272;-87
2023/08/19 23:32:17;;;;;;;10.48;8.73;;;23.20;99.90;;;;;;9929590;29;20357;-88
2023/08/19 23:37:38;;;;;;;11.73;8.65;;;23.00;1.00;;;;;;9944619;29;20229;-89
2023/08/19 23:43:00;;;;;;;9.43;8.02;;;23.00;1.00;;;;;;9917127;29;20224;-88
2023/08/19 23:48:21;;;;;;;9.82;8.82;;;23.00;57.50;;;;;;9916567;30;20201;-88
2023/08/19 23:53:46;;;;;;;12.55;9.43;;;22.90;99.90;;;;;;9916243;30;20251;-88
2023/08/19 23:59:08;;;;;;;9.38;8.40;;;22.90;1.00;;;;;;9942087;29;20236;-88
